Share

Atlanta, KS

9:27 AM CDT on April 23, 2014 (GMT -0500)
APRSWXNET Winfield KS US (MD2922) Elev 1318 ft | 37.21 °N, 96.90 °W | Change Station

Current weather conditions updated 44 minutes ago

Clear
Clear
61 °F
Feels Like 61 °F
N
10
Wind Variable Wind from SE
Gusts 13.0 mph
Sunrise 6:41 AM
Sunset 8:09 PM
Moon Waning Crescent

Today is forecast to be Warmer than yesterday. Thunderstorms developing late tonight.

Pressure 29.88 in
Visibility 10.0 miles
Clouds Clear
Dew Point 42 °F
Humidity 50%
Rainfall 0.00 in
Snow Depth Not available.
UV 2 out of 16
Pollen 11.60 out of 12
Air Quality Not available.
Flu Activity No Activity
METAR KIAB 231358Z AUTO 13013KT 10SM CLR 16/03 A2989 RMK AO2 SLP118 T01610034

More Conditions Fewer Conditions

Pressure 29.88 in
Visibility 10.0 miles
Clouds Clear
Dew Point 42 °F
Humidity 50%
Rainfall 0.00 in
Snow Depth Not available.
UV 2 out of 16
Pollen 11.60 out of 12
Air Quality Not available.
Flu Activity No Activity
METAR KIAB 231358Z AUTO 13013KT 10SM CLR 16/03 A2989 RMK AO2 SLP118 T01610034

More Conditions Fewer Conditions

10-Day Weather Forecast

Almanac

Astronomy

Apr. 23, 2014 Rise Set
Actual Time 6:41 AM CDT 8:09 PM CDT
Civil Twilight 6:14 AM CDT 8:37 PM CDT
Nautical Twilight 5:41 AM CDT 9:10 PM CDT
Astronomical Twilight 5:06 AM CDT 9:45 PM CDT
Moon 3:06 AM CDT 2:26 PM CDT
Length of Visible Light 14h 23m
Length of Day
13h 28m
Tomorrow will be 2m 11s longer.
Waning Crescent, 36% of the Moon is Illuminated
Today
Waning Crescent
Apr 29
New
May 6
First Quarter
May 14
Full
May 21
Last Quarter

Today's Extremes

State Highs State Lows

Community

  • spring flowers
    spring flowers
  • Earth Day Spectrum Ove' Blue
    Earth Day Spectrum Ove' Blue
  • BARN B&W
    BARN B&W
  • April Sunset
    April Sunset
  • Waiting..
    Waiting..

WunderPhotos

Upload Photos

1,704,296 photos uploaded!

Nearby

Snow Depth

Station Depth Elevation
No new snow has been reported.

Coastal Water Temperatures

Place Temperature
No Stations Reporting

Earthquake Activity

City Distance Mag. Time & Date
Stillwater, Oklahoma 95 miles 2.8 5:30 PM CDT
2014-04-19
Enid, Oklahoma 82 miles 2.9 1:11 PM CDT
2014-04-19
Perry, Oklahoma 84 miles 4.0 5:43 AM CDT
2014-04-19
Stillwater, Oklahoma 96 miles 2.7 3:40 AM CDT
2014-04-19
Minimum magnitude displayed is 2.5.

Nearby Weather Stations

Station Location Temp. Dew Point Humidity Wind Precip. Elev Updated Type
APRSWXNET Winfield KS , Winfield, KS 61 °F 42 °F 50% SE  at  10 mph 0.00 in / hr 1318 ft 8:43 AM CDT MADIS
The Boonies, Winfield, KS 66.4 °F 0 °F 7% SSE  at  15.7 mph 0.00 in / hr 1207 ft 9:26 AM CDT Rapid Fire
Downtown Rose Hill, Rose Hill, KS 63.5 °F 40 °F 42% SSW  at  2.0 mph 0.00 in / hr 1322 ft 9:27 AM CDT Rapid Fire

Show More Stations Show Fewer Stations

What do you think?

We're not finished. Please let us know what you like, what you don't like, and what you are still missing.